Time,TemperatureF,DewpointF,PressureIn,WindDirection,WindDirectionDegrees,WindSpeedMPH,WindSpeedGustMPH,Humidity,HourlyPrecipIn,Conditions,Clouds,dailyrainin,SolarRadiationWatts/m^2,SoftwareType,DateUTC
2013-07-16 00:00:00,74.1,67.5,30.12,NNW,338,0.0,0.0,80,0.00,,,0.00,0000,Weather View 32 v70,2013-07-16 04:00:00,
2013-07-16 00:05:00,74.1,67.5,30.12,NNW,338,0.0,0.0,80,0.00,,,0.00,0000,Weather View 32 v70,2013-07-16 04:05:00,
2013-07-16 00:10:00,74.1,67.5,30.12,NNW,338,0.0,0.0,80,0.00,,,0.00,0000,Weather View 32 v70,2013-07-16 04:10:00,
2013-07-16 00:15:00,74.0,67.8,30.12,NNW,338,0.0,0.0,81,0.00,,,0.00,0000,Weather View 32 v70,2013-07-16 04:15:00,
2013-07-16 00:20:00,73.9,67.6,30.12,NNW,338,0.0,0.0,81,0.00,,,0.00,0000,Weather View 32 v70,2013-07-16 04:20:00,
2013-07-16 00:25:00,73.8,67.6,30.12,NNW,338,0.0,0.0,81,0.00,,,0.00,0000,Weather View 32 v70,2013-07-16 04:25:00,
2013-07-16 00:30:00,73.7,67.4,30.12,NNW,338,0.0,0.0,81,0.00,,,0.00,0000,Weather View 32 v70,2013-07-16 04:30:00,
2013-07-16 00:35:00,73.7,67.4,30.12,NNW,338,0.0,0.0,81,0.00,,,0.00,0000,Weather View 32 v70,2013-07-16 04:35:00,
2013-07-16 00:40:00,73.5,67.3,30.12,NNW,338,0.0,0.0,81,0.00,,,0.00,0000,Weather View 32 v70,2013-07-16 04:40:00,
2013-07-16 00:45:00,73.5,67.3,30.12,NNW,338,0.0,0.0,81,0.00,,,0.00,0000,Weather View 32 v70,2013-07-16 04:45:00,
2013-07-16 00:55:00,73.3,67.1,30.12,NNW,338,0.0,0.0,81,0.00,,,0.00,0000,Weather View 32 v70,2013-07-16 04:55:00,
2013-07-16 01:00:00,73.2,67.0,30.12,NNW,338,0.0,0.0,81,0.00,,,0.00,0008,Weather View 32 v70,2013-07-16 05:00:00,
2013-07-16 01:10:00,73.1,66.9,30.12,NNW,338,0.0,0.0,81,0.00,,,0.00,0000,Weather View 32 v70,2013-07-16 05:10:00,
2013-07-16 01:15:00,73.0,66.8,30.12,NNW,338,0.0,0.0,81,0.00,,,0.00,0000,Weather View 32 v70,2013-07-16 05:15:00,
2013-07-16 01:20:00,72.9,67.0,30.12,NNW,338,0.0,0.0,82,0.00,,,0.00,0000,Weather View 32 v70,2013-07-16 05:20:00,
2013-07-16 01:27:00,72.8,66.9,30.12,NNW,338,0.0,0.0,82,0.00,,,0.00,0000,Weather View 32 v70,2013-07-16 05:27:00,
2013-07-16 01:35:00,72.6,66.8,30.12,NNW,338,0.0,0.0,82,0.00,,,0.00,0008,Weather View 32 v70,2013-07-16 05:35:00,
2013-07-16 01:45:00,72.4,66.6,30.12,NNW,338,0.0,0.0,82,0.00,,,0.00,0000,Weather View 32 v70,2013-07-16 05:45:00,
2013-07-16 01:50:00,72.3,66.5,30.12,NNW,338,0.0,0.0,82,0.00,,,0.00,0000,Weather View 32 v70,2013-07-16 05:50:00,
2013-07-16 02:00:00,72.2,66.4,30.12,NNW,338,0.0,0.0,82,0.00,,,0.00,0000,Weather View 32 v70,2013-07-16 06:00:00,
2013-07-16 02:05:00,72.2,66.4,30.12,North,0,0.0,1.0,82,0.00,,,0.00,0008,Weather View 32 v70,2013-07-16 06:05:00,
2013-07-16 02:15:00,72.1,66.6,30.12,NNW,338,0.0,1.0,83,0.00,,,0.00,0000,Weather View 32 v70,2013-07-16 06:15:00,
2013-07-16 02:25:00,72.2,66.7,30.11,NNW,338,0.0,1.0,83,0.00,,,0.00,0000,Weather View 32 v70,2013-07-16 06:25:00,
2013-07-16 02:30:00,72.2,66.7,30.12,NNW,338,0.0,1.0,83,0.00,,,0.00,0000,Weather View 32 v70,2013-07-16 06:30:00,
2013-07-16 02:35:00,72.1,66.6,30.11,NNW,338,0.0,1.0,83,0.00,,,0.00,0008,Weather View 32 v70,2013-07-16 06:35:00,
2013-07-16 02:40:00,72.0,66.5,30.12,NNW,338,0.0,1.0,83,0.00,,,0.00,0000,Weather View 32 v70,2013-07-16 06:40:00,
2013-07-16 02:45:00,72.0,66.5,30.12,NNW,338,0.0,1.0,83,0.00,,,0.00,0000,Weather View 32 v70,2013-07-16 06:45:00,
2013-07-16 02:55:00,71.9,66.4,30.12,NNW,338,0.0,1.0,83,0.00,,,0.00,0008,Weather View 32 v70,2013-07-16 06:55:00,
2013-07-16 03:00:00,71.7,66.3,30.11,NNW,338,0.0,1.0,83,0.00,,,0.00,0000,Weather View 32 v70,2013-07-16 07:00:00,
2013-07-16 03:10:00,71.6,66.2,30.11,NNW,338,0.0,0.0,83,0.00,,,0.00,0000,Weather View 32 v70,2013-07-16 07:10:00,
2013-07-16 03:15:00,71.6,66.2,30.11,NNW,338,0.0,0.0,83,0.00,,,0.00,0000,Weather View 32 v70,2013-07-16 07:15:00,
2013-07-16 03:20:00,71.5,66.1,30.11,NNW,338,0.0,0.0,83,0.00,,,0.00,0000,Weather View 32 v70,2013-07-16 07:20:00,
2013-07-16 03:28:00,71.5,66.1,30.11,NNW,338,0.0,0.0,83,0.00,,,0.00,0000,Weather View 32 v70,2013-07-16 07:28:00,
2013-07-16 03:35:00,71.4,65.9,30.11,NNW,338,0.0,0.0,83,0.00,,,0.00,0000,Weather View 32 v70,2013-07-16 07:35:00,
2013-07-16 03:40:00,71.4,65.9,30.11,NNW,338,0.0,0.0,83,0.00,,,0.00,0000,Weather View 32 v70,2013-07-16 07:40:00,
2013-07-16 03:45:00,71.4,65.9,30.11,NNW,338,0.0,0.0,83,0.00,,,0.00,0000,Weather View 32 v70,2013-07-16 07:45:00,
2013-07-16 03:55:00,71.3,65.8,30.10,NNW,338,0.0,0.0,83,0.00,,,0.00,0000,Weather View 32 v70,2013-07-16 07:55:00,
2013-07-16 04:00:00,71.3,65.8,30.10,NNW,338,0.0,0.0,83,0.00,,,0.00,0000,Weather View 32 v70,2013-07-16 08:00:00,
2013-07-16 04:10:00,71.2,65.7,30.11,NNW,338,0.0,0.0,83,0.00,,,0.00,0000,Weather View 32 v70,2013-07-16 08:10:00,
2013-07-16 04:20:00,71.1,65.6,30.11,NNW,338,0.0,0.0,83,0.00,,,0.00,0000,Weather View 32 v70,2013-07-16 08:20:00,
2013-07-16 04:29:00,71.1,65.6,30.11,NNW,338,0.0,0.0,83,0.00,,,0.00,0000,Weather View 32 v70,2013-07-16 08:29:00,
2013-07-16 04:35:00,71.0,65.5,30.11,NNW,338,0.0,0.0,83,0.00,,,0.00,0000,Weather View 32 v70,2013-07-16 08:35:00,
2013-07-16 04:40:00,71.0,65.5,30.11,NNW,338,0.0,0.0,83,0.00,,,0.00,0008,Weather View 32 v70,2013-07-16 08:40:00,
2013-07-16 04:50:00,70.8,65.4,30.11,NNW,338,0.0,0.0,83,0.00,,,0.00,0000,Weather View 32 v70,2013-07-16 08:50:00,
2013-07-16 04:55:00,70.7,65.3,30.11,NNW,338,0.0,0.0,83,0.00,,,0.00,0000,Weather View 32 v70,2013-07-16 08:55:00,
2013-07-16 05:05:00,70.7,65.3,30.11,NNW,338,0.0,0.0,83,0.00,,,0.00,0000,Weather View 32 v70,2013-07-16 09:05:00,
2013-07-16 05:10:00,70.7,65.3,30.11,NNW,338,0.0,0.0,83,0.00,,,0.00,0000,Weather View 32 v70,2013-07-16 09:10:00,
2013-07-16 05:15:00,70.6,65.2,30.11,NNW,338,0.0,0.0,83,0.00,,,0.00,0008,Weather View 32 v70,2013-07-16 09:15:00,
2013-07-16 05:25:00,70.5,65.1,30.12,NNW,338,0.0,0.0,83,0.00,,,0.00,0008,Weather View 32 v70,2013-07-16 09:25:00,
2013-07-16 05:35:00,70.4,65.0,30.12,NNW,338,0.0,0.0,83,0.00,,,0.00,0000,Weather View 32 v70,2013-07-16 09:35:00,
2013-07-16 05:45:00,70.3,64.8,30.12,NW,315,0.0,0.0,83,0.00,,,0.00,0016,Weather View 32 v70,2013-07-16 09:45:00,
2013-07-16 05:50:00,70.3,64.8,30.12,NW,315,0.0,0.0,83,0.00,,,0.00,0000,Weather View 32 v70,2013-07-16 09:50:00,
2013-07-16 06:00:00,70.3,64.8,30.12,NNW,338,0.0,0.0,83,0.00,,,0.00,0008,Weather View 32 v70,2013-07-16 10:00:00,
2013-07-16 06:05:00,70.3,64.8,30.12,NNW,338,0.0,0.0,83,0.00,,,0.00,0008,Weather View 32 v70,2013-07-16 10:05:00,
2013-07-16 06:15:00,70.3,64.8,30.12,NNW,338,0.0,0.0,83,0.00,,,0.00,0016,Weather View 32 v70,2013-07-16 10:15:00,
2013-07-16 06:20:00,70.3,64.8,30.12,NNW,338,0.0,0.0,83,0.00,,,0.00,0008,Weather View 32 v70,2013-07-16 10:20:00,
2013-07-16 06:30:00,70.3,64.8,30.12,NNW,338,0.0,0.0,83,0.00,,,0.00,0016,Weather View 32 v70,2013-07-16 10:30:00,
2013-07-16 06:40:00,70.4,65.0,30.13,NNW,338,0.0,0.0,83,0.00,,,0.00,0040,Weather View 32 v70,2013-07-16 10:40:00,
2013-07-16 06:50:00,70.5,64.7,30.13,NNW,338,0.0,0.0,82,0.00,,,0.00,0024,Weather View 32 v70,2013-07-16 10:50:00,
2013-07-16 06:55:00,70.6,65.2,30.13,NNW,338,0.0,0.0,83,0.00,,,0.00,0024,Weather View 32 v70,2013-07-16 10:55:00,
2013-07-16 07:00:00,70.7,65.3,30.13,NNW,338,0.0,0.0,83,0.00,,,0.00,0024,Weather View 32 v70,2013-07-16 11:00:00,
2013-07-16 07:10:00,71.1,65.6,30.13,NW,315,0.0,0.0,83,0.00,,,0.00,0048,Weather View 32 v70,2013-07-16 11:10:00,
2013-07-16 07:15:00,71.2,65.7,30.14,NW,315,0.0,0.0,83,0.00,,,0.00,0056,Weather View 32 v70,2013-07-16 11:15:00,
2013-07-16 07:20:00,71.4,65.9,30.14,NNW,338,0.0,0.0,83,0.00,,,0.00,0032,Weather View 32 v70,2013-07-16 11:20:00,
2013-07-16 07:25:00,71.6,66.2,30.14,NNW,338,0.0,0.0,83,0.00,,,0.00,0032,Weather View 32 v70,2013-07-16 11:25:00,
2013-07-16 07:30:00,71.9,66.0,30.14,North,0,0.0,0.0,82,0.00,,,0.00,0040,Weather View 32 v70,2013-07-16 11:30:00,
2013-07-16 07:40:00,72.5,66.3,30.14,NNW,338,0.0,0.0,81,0.00,,,0.00,0040,Weather View 32 v70,2013-07-16 11:40:00,
2013-07-16 07:45:00,72.8,66.2,30.14,NNW,338,0.0,0.0,80,0.00,,,0.00,0048,Weather View 32 v70,2013-07-16 11:45:00,
2013-07-16 07:50:00,73.2,66.6,30.14,NW,315,0.0,0.0,80,0.00,,,0.00,0064,Weather View 32 v70,2013-07-16 11:50:00,
2013-07-16 08:00:00,74.6,67.6,30.14,NNW,338,0.0,0.0,79,0.00,,,0.00,0352,Weather View 32 v70,2013-07-16 12:00:00,
2013-07-16 08:05:00,75.1,67.4,30.14,NNW,338,0.0,0.0,77,0.00,,,0.00,0352,Weather View 32 v70,2013-07-16 12:05:00,
2013-07-16 08:15:00,76.6,68.0,30.14,NW,315,0.0,2.0,75,0.00,,,0.00,0400,Weather View 32 v70,2013-07-16 12:15:00,
2013-07-16 08:20:00,77.0,67.7,30.14,NNW,338,0.0,2.0,73,0.00,,,0.00,0392,Weather View 32 v70,2013-07-16 12:20:00,
2013-07-16 08:25:00,77.8,68.4,30.14,NNW,338,0.0,2.0,73,0.00,,,0.00,0408,Weather View 32 v70,2013-07-16 12:25:00,
2013-07-16 08:31:00,78.3,68.9,30.14,North,0,0.0,2.0,73,0.00,,,0.00,0448,Weather View 32 v70,2013-07-16 12:31:00,
2013-07-16 08:40:00,79.3,69.4,30.14,NNW,338,0.0,2.0,72,0.00,,,0.00,0472,Weather View 32 v70,2013-07-16 12:40:00,
2013-07-16 08:45:00,79.8,69.6,30.14,NNW,338,0.0,2.0,71,0.00,,,0.00,0480,Weather View 32 v70,2013-07-16 12:45:00,
2013-07-16 08:50:00,80.2,69.5,30.14,NW,315,0.0,2.0,70,0.00,,,0.00,0480,Weather View 32 v70,2013-07-16 12:50:00,
2013-07-16 09:00:00,81.5,70.7,30.15,NNW,338,0.0,4.0,70,0.00,,,0.00,0520,Weather View 32 v70,2013-07-16 13:00:00,
2013-07-16 09:05:00,81.9,70.2,30.14,NNW,338,0.0,4.0,68,0.00,,,0.00,0480,Weather View 32 v70,2013-07-16 13:05:00,
2013-07-16 09:15:00,82.7,70.5,30.14,NNW,338,0.0,4.0,67,0.00,,,0.00,0544,Weather View 32 v70,2013-07-16 13:15:00,
2013-07-16 09:20:00,83.6,70.5,30.14,NNW,338,0.0,4.0,65,0.00,,,0.00,0560,Weather View 32 v70,2013-07-16 13:20:00,
2013-07-16 09:25:00,83.7,70.1,30.13,NNW,338,0.0,4.0,64,0.00,,,0.00,0576,Weather View 32 v70,2013-07-16 13:25:00,
2013-07-16 09:30:00,83.7,70.6,30.14,WNW,293,0.0,4.0,65,0.00,,,0.00,0616,Weather View 32 v70,2013-07-16 13:30:00,
2013-07-16 09:35:00,83.8,69.8,30.14,NNW,338,0.0,4.0,63,0.00,,,0.00,0616,Weather View 32 v70,2013-07-16 13:35:00,
2013-07-16 09:45:00,84.5,69.5,30.14,NW,315,0.0,4.0,61,0.00,,,0.00,0616,Weather View 32 v70,2013-07-16 13:45:00,
2013-07-16 09:50:00,84.9,70.8,30.13,NW,315,0.0,4.0,63,0.00,,,0.00,0656,Weather View 32 v70,2013-07-16 13:50:00,
2013-07-16 09:55:00,85.1,71.5,30.13,North,0,0.0,2.0,64,0.00,,,0.00,0648,Weather View 32 v70,2013-07-16 13:55:00,
2013-07-16 10:05:00,85.6,70.0,30.14,NNW,338,0.0,2.0,60,0.00,,,0.00,0664,Weather View 32 v70,2013-07-16 14:05:00,
2013-07-16 10:10:00,86.4,70.8,30.13,North,0,0.0,2.0,60,0.00,,,0.00,0696,Weather View 32 v70,2013-07-16 14:10:00,
2013-07-16 10:15:00,86.6,69.5,30.13,NW,315,0.0,2.0,57,0.00,,,0.00,0704,Weather View 32 v70,2013-07-16 14:15:00,
2013-07-16 10:20:00,86.0,68.4,30.13,NNW,338,0.0,2.0,56,0.00,,,0.00,0696,Weather View 32 v70,2013-07-16 14:20:00,
2013-07-16 10:25:00,86.4,69.3,30.14,NNW,338,0.0,2.0,57,0.00,,,0.00,0704,Weather View 32 v70,2013-07-16 14:25:00,
2013-07-16 10:30:00,86.8,70.2,30.13,NNW,338,0.0,2.0,58,0.00,,,0.00,0736,Weather View 32 v70,2013-07-16 14:30:00,
2013-07-16 10:40:00,87.4,69.7,30.14,North,0,0.0,2.0,56,0.00,,,0.00,0736,Weather View 32 v70,2013-07-16 14:40:00,
2013-07-16 10:45:00,87.3,68.5,30.13,NNW,338,0.0,2.0,54,0.00,,,0.00,0736,Weather View 32 v70,2013-07-16 14:45:00,
2013-07-16 10:55:00,87.7,70.0,30.13,NNW,338,0.0,2.0,56,0.00,,,0.00,0752,Weather View 32 v70,2013-07-16 14:55:00,
2013-07-16 11:00:00,87.7,69.5,30.14,WNW,293,0.0,2.0,55,0.00,,,0.00,0768,Weather View 32 v70,2013-07-16 15:00:00,
2013-07-16 11:10:00,88.4,67.3,30.13,East,90,0.0,0.0,50,0.00,,,0.00,0808,Weather View 32 v70,2013-07-16 15:10:00,
2013-07-16 11:20:00,88.4,66.7,30.13,NW,315,0.0,1.0,49,0.00,,,0.00,0800,Weather View 32 v70,2013-07-16 15:20:00,
2013-07-16 11:30:00,88.4,67.9,30.13,NNW,338,0.0,2.0,51,0.00,,,0.00,0800,Weather View 32 v70,2013-07-16 15:30:00,
2013-07-16 11:40:00,89.2,66.8,30.13,North,0,0.0,7.0,48,0.00,,,0.00,0824,Weather View 32 v70,2013-07-16 15:40:00,
2013-07-16 11:45:00,89.1,67.9,30.13,North,0,0.0,7.0,50,0.00,,,0.00,0824,Weather View 32 v70,2013-07-16 15:45:00,
2013-07-16 11:55:00,89.1,69.6,30.13,NNW,338,0.0,7.0,53,0.00,,,0.00,0840,Weather View 32 v70,2013-07-16 15:55:00,
2013-07-16 12:05:00,89.3,68.1,30.13,NNW,338,0.0,7.0,50,0.00,,,0.00,0824,Weather View 32 v70,2013-07-16 16:05:00,
2013-07-16 12:10:00,89.3,68.1,30.12,North,0,0.0,7.0,50,0.00,,,0.00,0864,Weather View 32 v70,2013-07-16 16:10:00,
2013-07-16 12:20:00,89.6,70.1,30.12,NNW,338,0.0,7.0,53,0.00,,,0.00,0872,Weather View 32 v70,2013-07-16 16:20:00,
2013-07-16 12:30:00,90.0,69.3,30.12,NNE,23,2.0,7.0,51,0.00,,,0.00,0848,Weather View 32 v70,2013-07-16 16:30:00,
2013-07-16 12:35:00,89.9,68.6,30.12,WSW,248,0.0,4.0,50,0.00,,,0.00,0888,Weather View 32 v70,2013-07-16 16:35:00,
2013-07-16 12:40:00,89.9,66.8,30.12,NNW,338,0.0,6.0,47,0.00,,,0.00,0864,Weather View 32 v70,2013-07-16 16:40:00,
2013-07-16 12:45:00,89.6,64.7,30.12,North,0,0.0,6.0,44,0.00,,,0.00,0896,Weather View 32 v70,2013-07-16 16:45:00,
2013-07-16 12:55:00,90.0,67.6,30.12,NNW,338,0.0,6.0,48,0.00,,,0.00,0888,Weather View 32 v70,2013-07-16 16:55:00,
2013-07-16 13:00:00,90.2,67.1,30.12,NNW,338,0.0,6.0,47,0.00,,,0.00,0880,Weather View 32 v70,2013-07-16 17:00:00,
2013-07-16 13:10:00,90.4,68.6,30.12,WNW,293,0.0,6.0,49,0.00,,,0.00,0464,Weather View 32 v70,2013-07-16 17:10:00,
2013-07-16 13:15:00,90.0,64.4,30.12,East,90,0.0,6.0,43,0.00,,,0.00,0896,Weather View 32 v70,2013-07-16 17:15:00,
2013-07-16 13:20:00,90.0,64.4,30.12,North,0,0.0,6.0,43,0.00,,,0.00,0912,Weather View 32 v70,2013-07-16 17:20:00,
2013-07-16 13:25:00,90.1,65.8,30.12,NW,315,0.0,6.0,45,0.00,,,0.00,0712,Weather View 32 v70,2013-07-16 17:25:00,
2013-07-16 13:30:00,90.8,67.7,30.12,NNW,338,0.0,6.0,47,0.00,,,0.00,0872,Weather View 32 v70,2013-07-16 17:30:00,
2013-07-16 13:40:00,91.3,69.4,30.11,NNW,338,0.0,5.0,49,0.00,,,0.00,0896,Weather View 32 v70,2013-07-16 17:40:00,
2013-07-16 13:45:00,90.9,67.8,30.11,NNW,338,0.0,4.0,47,0.00,,,0.00,0928,Weather View 32 v70,2013-07-16 17:45:00,
2013-07-16 13:55:00,90.1,68.3,30.12,NNW,338,0.0,4.0,49,0.00,,,0.00,0176,Weather View 32 v70,2013-07-16 17:55:00,
2013-07-16 14:00:00,89.9,68.6,30.11,NNW,338,0.0,4.0,50,0.00,,,0.00,0184,Weather View 32 v70,2013-07-16 18:00:00,
2013-07-16 14:10:00,90.2,69.0,30.11,NNW,338,0.0,4.0,50,0.00,,,0.00,0464,Weather View 32 v70,2013-07-16 18:10:00,
2013-07-16 14:20:00,90.4,67.4,30.11,NNW,338,0.0,4.0,47,0.00,,,0.00,0200,Weather View 32 v70,2013-07-16 18:20:00,
2013-07-16 14:25:00,89.6,70.7,30.11,North,0,0.0,2.0,54,0.00,,,0.00,0296,Weather View 32 v70,2013-07-16 18:25:00,
2013-07-16 14:30:00,89.4,69.4,30.11,North,0,0.0,2.0,52,0.00,,,0.00,0912,Weather View 32 v70,2013-07-16 18:30:00,
2013-07-16 14:40:00,91.1,68.6,30.11,NNW,338,0.0,2.0,48,0.00,,,0.00,0848,Weather View 32 v70,2013-07-16 18:40:00,
2013-07-16 14:45:00,91.4,68.3,30.11,NNW,338,1.0,2.0,47,0.00,,,0.00,0856,Weather View 32 v70,2013-07-16 18:45:00,
2013-07-16 14:55:00,91.2,68.1,30.11,North,0,0.0,6.0,47,0.00,,,0.00,0816,Weather View 32 v70,2013-07-16 18:55:00,
2013-07-16 15:00:00,91.7,69.1,30.10,ENE,68,0.0,6.0,48,0.00,,,0.00,0760,Weather View 32 v70,2013-07-16 19:00:00,
2013-07-16 15:10:00,91.8,69.8,30.11,NE,45,0.0,6.0,49,0.00,,,0.00,0744,Weather View 32 v70,2013-07-16 19:10:00,
2013-07-16 15:20:00,91.1,68.0,30.10,North,0,0.0,6.0,47,0.00,,,0.00,0688,Weather View 32 v70,2013-07-16 19:20:00,
2013-07-16 15:30:00,91.2,68.7,30.10,North,0,0.0,6.0,48,0.00,,,0.00,0744,Weather View 32 v70,2013-07-16 19:30:00,
2013-07-16 15:35:00,91.5,67.1,30.10,NW,315,0.0,6.0,45,0.00,,,0.00,0712,Weather View 32 v70,2013-07-16 19:35:00,
2013-07-16 15:45:00,91.0,64.6,30.11,NNE,23,0.0,6.0,42,0.00,,,0.00,0632,Weather View 32 v70,2013-07-16 19:45:00,
2013-07-16 15:50:00,91.4,68.3,30.11,NNE,23,0.0,6.0,47,0.00,,,0.00,0632,Weather View 32 v70,2013-07-16 19:50:00,
2013-07-16 16:00:00,91.1,67.3,30.10,NNW,338,0.0,3.0,46,0.00,,,0.00,0600,Weather View 32 v70,2013-07-16 20:00:00,
2013-07-16 16:05:00,90.8,67.0,30.10,North,0,0.0,3.0,46,0.00,,,0.00,0560,Weather View 32 v70,2013-07-16 20:05:00,
2013-07-16 16:10:00,90.8,67.7,30.11,NNW,338,0.0,3.0,47,0.00,,,0.00,0576,Weather View 32 v70,2013-07-16 20:10:00,
2013-07-16 16:20:00,90.5,66.8,30.11,NNE,23,0.0,3.0,46,0.00,,,0.00,0576,Weather View 32 v70,2013-07-16 20:20:00,
2013-07-16 16:30:00,90.3,68.5,30.11,NNW,338,0.0,2.0,49,0.00,,,0.00,0512,Weather View 32 v70,2013-07-16 20:30:00,
2013-07-16 16:35:00,90.1,68.8,30.11,NNE,23,0.0,2.0,50,0.00,,,0.00,0496,Weather View 32 v70,2013-07-16 20:35:00,
2013-07-16 16:40:00,89.9,66.2,30.11,North,0,0.0,2.0,46,0.00,,,0.00,0504,Weather View 32 v70,2013-07-16 20:40:00,
2013-07-16 16:50:00,89.3,68.1,30.10,NNW,338,0.0,7.0,50,0.00,,,0.00,0464,Weather View 32 v70,2013-07-16 20:50:00,
2013-07-16 16:55:00,88.8,67.1,30.10,NNW,338,0.0,7.0,49,0.00,,,0.00,0456,Weather View 32 v70,2013-07-16 20:55:00,
2013-07-16 17:00:00,88.8,67.7,30.10,NNE,23,0.0,7.0,50,0.00,,,0.00,0456,Weather View 32 v70,2013-07-16 21:00:00,
2013-07-16 17:05:00,88.3,67.2,30.10,NNE,23,0.0,7.0,50,0.00,,,0.00,0432,Weather View 32 v70,2013-07-16 21:05:00,
2013-07-16 17:15:00,87.7,68.4,30.09,NNW,338,0.0,7.0,53,0.00,,,0.00,0408,Weather View 32 v70,2013-07-16 21:15:00,
2013-07-16 17:20:00,87.0,67.2,30.10,NNW,338,0.0,7.0,52,0.00,,,0.00,0368,Weather View 32 v70,2013-07-16 21:20:00,
2013-07-16 17:25:00,86.7,68.0,30.10,NNW,338,0.0,7.0,54,0.00,,,0.00,0376,Weather View 32 v70,2013-07-16 21:25:00,
2013-07-16 17:30:00,86.4,67.7,30.10,North,0,0.0,7.0,54,0.00,,,0.00,0360,Weather View 32 v70,2013-07-16 21:30:00,
2013-07-16 17:36:00,85.9,67.8,30.09,NNW,338,0.0,7.0,55,0.00,,,0.00,0088,Weather View 32 v70,2013-07-16 21:36:00,
2013-07-16 17:45:00,85.5,68.4,30.10,NW,315,0.0,7.0,57,0.00,,,0.00,0064,Weather View 32 v70,2013-07-16 21:45:00,
2013-07-16 17:50:00,85.1,67.6,30.09,NW,315,0.0,1.0,56,0.00,,,0.00,0040,Weather View 32 v70,2013-07-16 21:50:00,
2013-07-16 18:00:00,84.6,68.1,30.10,North,0,0.0,0.0,58,0.00,,,0.00,0064,Weather View 32 v70,2013-07-16 22:00:00,
2013-07-16 18:05:00,84.5,68.5,30.09,North,0,0.0,0.0,59,0.00,,,0.00,0064,Weather View 32 v70,2013-07-16 22:05:00,
2013-07-16 18:10:00,84.1,67.7,30.11,North,0,0.0,0.0,58,0.00,,,0.00,0048,Weather View 32 v70,2013-07-16 22:10:00,
2013-07-16 18:15:00,83.9,68.5,30.09,NNW,338,0.0,0.0,60,0.00,,,0.00,0120,Weather View 32 v70,2013-07-16 22:15:00,
2013-07-16 18:25:00,83.4,68.0,30.09,NNW,338,0.0,0.0,60,0.00,,,0.00,0200,Weather View 32 v70,2013-07-16 22:25:00,
2013-07-16 18:35:00,83.2,69.3,30.09,NNW,338,0.0,0.0,63,0.00,,,0.00,0032,Weather View 32 v70,2013-07-16 22:35:00,
2013-07-16 18:45:00,82.9,69.4,30.10,NNW,338,0.0,0.0,64,0.00,,,0.00,0072,Weather View 32 v70,2013-07-16 22:45:00,
2013-07-16 18:50:00,82.7,69.6,30.09,NNW,338,0.0,0.0,65,0.00,,,0.00,0056,Weather View 32 v70,2013-07-16 22:50:00,
2013-07-16 19:00:00,82.3,69.3,30.10,NNW,338,0.0,0.0,65,0.00,,,0.00,0040,Weather View 32 v70,2013-07-16 23:00:00,
2013-07-16 19:10:00,82.0,68.5,30.11,NE,45,0.0,0.0,64,0.00,,,0.00,0040,Weather View 32 v70,2013-07-16 23:10:00,
2013-07-16 19:15:00,82.0,69.0,30.11,North,0,0.0,0.0,65,0.00,,,0.00,0032,Weather View 32 v70,2013-07-16 23:15:00,
2013-07-16 19:25:00,81.6,69.6,30.11,NNW,338,0.0,0.0,67,0.00,,,0.00,0032,Weather View 32 v70,2013-07-16 23:25:00,
2013-07-16 19:30:00,81.3,69.2,30.11,NNW,338,0.0,0.0,67,0.00,,,0.00,0008,Weather View 32 v70,2013-07-16 23:30:00,
2013-07-16 19:37:00,81.0,68.9,30.12,NNW,338,0.0,0.0,67,0.00,,,0.00,0016,Weather View 32 v70,2013-07-16 23:37:00,
2013-07-16 19:45:00,80.4,68.8,30.12,NNW,338,0.0,0.0,68,0.00,,,0.00,0000,Weather View 32 v70,2013-07-16 23:45:00,
2013-07-16 19:55:00,80.2,69.0,30.12,NNW,338,0.0,0.0,69,0.00,,,0.00,0000,Weather View 32 v70,2013-07-16 23:55:00,
2013-07-16 20:00:00,80.1,69.4,30.12,NNW,338,0.0,0.0,70,0.00,,,0.00,0000,Weather View 32 v70,2013-07-17 00:00:00,
2013-07-16 20:10:00,80.0,69.7,30.12,North,0,0.0,0.0,71,0.00,,,0.00,0008,Weather View 32 v70,2013-07-17 00:10:00,
2013-07-16 20:20:00,79.5,68.4,30.12,North,0,0.0,0.0,69,0.00,,,0.00,0008,Weather View 32 v70,2013-07-17 00:20:00,
2013-07-16 20:25:00,79.1,68.0,30.12,North,0,0.0,0.0,69,0.00,,,0.00,0000,Weather View 32 v70,2013-07-17 00:25:00,
2013-07-16 20:30:00,78.6,68.0,30.13,North,0,0.0,0.0,70,0.00,,,0.00,0000,Weather View 32 v70,2013-07-17 00:30:00,
2013-07-16 20:38:00,78.0,67.8,30.13,North,0,0.0,0.0,71,0.00,,,0.00,0000,Weather View 32 v70,2013-07-17 00:38:00,
2013-07-16 20:45:00,77.1,67.4,30.13,North,0,0.0,0.0,72,0.00,,,0.00,0000,Weather View 32 v70,2013-07-17 00:45:00,
2013-07-16 20:55:00,76.7,67.3,30.13,North,0,0.0,0.0,73,0.00,,,0.00,0000,Weather View 32 v70,2013-07-17 00:55:00,
2013-07-16 21:00:00,76.4,67.0,30.13,North,0,0.0,0.0,73,0.00,,,0.00,0000,Weather View 32 v70,2013-07-17 01:00:00,
2013-07-16 21:10:00,76.2,67.3,30.14,North,0,0.0,0.0,74,0.00,,,0.00,0016,Weather View 32 v70,2013-07-17 01:10:00,
2013-07-16 21:15:00,76.2,67.3,30.14,North,0,0.0,0.0,74,0.00,,,0.00,0008,Weather View 32 v70,2013-07-17 01:15:00,
2013-07-16 21:25:00,75.8,67.3,30.14,North,0,0.0,0.0,75,0.00,,,0.00,0000,Weather View 32 v70,2013-07-17 01:25:00,
2013-07-16 21:30:00,75.6,67.1,30.14,North,0,0.0,0.0,75,0.00,,,0.00,0000,Weather View 32 v70,2013-07-17 01:30:00,
2013-07-16 21:35:00,75.6,67.4,30.14,North,0,0.0,0.0,76,0.00,,,0.00,0000,Weather View 32 v70,2013-07-17 01:35:00,
2013-07-16 21:45:00,75.3,66.8,30.14,North,0,0.0,0.0,75,0.00,,,0.00,0000,Weather View 32 v70,2013-07-17 01:45:00,
2013-07-16 21:55:00,74.9,66.4,30.15,North,0,0.0,0.0,75,0.00,,,0.00,0000,Weather View 32 v70,2013-07-17 01:55:00,
2013-07-16 22:05:00,74.4,66.3,30.15,North,0,0.0,0.0,76,0.00,,,0.00,0000,Weather View 32 v70,2013-07-17 02:05:00,
2013-07-16 22:15:00,74.2,66.1,30.14,North,0,0.0,0.0,76,0.00,,,0.00,0000,Weather View 32 v70,2013-07-17 02:15:00,
2013-07-16 22:25:00,74.0,65.9,30.14,North,0,0.0,0.0,76,0.00,,,0.00,0000,Weather View 32 v70,2013-07-17 02:25:00,
2013-07-16 22:35:00,73.7,66.0,30.15,North,0,0.0,0.0,77,0.00,,,0.00,0000,Weather View 32 v70,2013-07-17 02:35:00,
2013-07-16 22:40:00,73.5,65.9,30.15,North,0,0.0,0.0,77,0.00,,,0.00,0000,Weather View 32 v70,2013-07-17 02:40:00,
2013-07-16 22:50:00,73.5,66.2,30.15,North,0,0.0,0.0,78,0.00,,,0.00,0000,Weather View 32 v70,2013-07-17 02:50:00,
2013-07-16 22:55:00,73.4,66.1,30.15,North,0,0.0,0.0,78,0.00,,,0.00,0016,Weather View 32 v70,2013-07-17 02:55:00,
2013-07-16 23:05:00,73.2,65.9,30.15,North,0,0.0,0.0,78,0.00,,,0.00,0008,Weather View 32 v70,2013-07-17 03:05:00,
2013-07-16 23:15:00,73.1,65.8,30.15,North,0,0.0,0.0,78,0.00,,,0.00,0000,Weather View 32 v70,2013-07-17 03:15:00,
2013-07-16 23:20:00,73.0,65.7,30.15,North,0,0.0,0.0,78,0.00,,,0.00,0000,Weather View 32 v70,2013-07-17 03:20:00,
2013-07-16 23:25:00,73.0,66.0,30.15,North,0,0.0,0.0,79,0.00,,,0.00,0000,Weather View 32 v70,2013-07-17 03:25:00,
2013-07-16 23:30:00,72.9,65.9,30.15,North,0,0.0,0.0,79,0.00,,,0.00,0008,Weather View 32 v70,2013-07-17 03:30:00,
2013-07-16 23:39:00,72.9,65.9,30.15,North,0,0.0,0.0,79,0.00,,,0.00,0000,Weather View 32 v70,2013-07-17 03:39:00,
2013-07-16 23:45:00,72.6,65.7,30.15,North,0,0.0,0.0,79,0.00,,,0.00,0000,Weather View 32 v70,2013-07-17 03:45:00,
2013-07-16 23:50:00,72.6,65.7,30.15,North,0,0.0,0.0,79,0.00,,,0.00,0000,Weather View 32 v70,2013-07-17 03:50:00,
2013-07-16 23:55:00,72.5,66.0,30.15,North,0,0.0,0.0,80,0.00,,,0.00,0000,Weather View 32 v70,2013-07-17 03:55:00,